Planet Ace — 3EYF9 — position and weather

sailwx.info

Track history (hours):
 
Tides and Currents Weather Stations Pressure Air Temp Water Temp Dewpoint Dewpoint Depression Visibility Wind Speed Wind Dir Waves Ship Positions

Planet Ace

Last reported at 2014-Oct-25 06:33 UTC. Time now 2014-Oct-25 07:01 UTC.
Position N 38°15' E 009°22'.

Length 188 m; beam 28.2 m.

Type: Cargo ship. MMSI: 352168000.

Date/timePositionNaut miles runAvg speedWind from/ knotsBaromVisibWave heightAir tempDewpointWater temp
2014-Oct-25 06:33N 38°15' E 009°22'  
2014-Oct-23 01:20N 36°32' E 023°42'1314.1
2014-Oct-23 00:24N 36°42' E 023°53'1314.6
2014-Oct-22 23:32N 36°52' E 024°02'1414.5
2014-Oct-22 22:33N 37°05' E 024°08'1514.7
2014-Oct-22 21:33N 37°19' E 024°14'1414.1
2014-Oct-22 20:33N 37°31' E 024°23'1414.3
2014-Oct-22 19:34N 37°44' E 024°32'13813.7
2014-Oct-22 09:30N 39°50' E 025°45'13312.1
2014-Oct-21 22:32N 40°45' E 028°24'1515.2
2014-Oct-21 21:33N 40°35' E 028°39'1814.8
2014-Oct-21 20:19N 40°26' E 028°60'4 2.2
2014-Oct-21 18:29N 40°25' E 029°05'0 0.0
2014-Oct-21 17:29N 40°25' E 029°05'0 0.0
2014-Oct-21 16:23N 40°25' E 029°05'0 0.0
2014-Oct-21 15:23N 40°25' E 029°05'0 0.0
2014-Oct-21 14:23N 40°25' E 029°05'0 0.1
2014-Oct-21 10:33N 40°25' E 029°05'2 0.1
2014-Oct-20 00:21N 40°27' E 029°03'1512.5
2014-Oct-19 23:07N 40°33' E 028°45'814.6
2014-Oct-19 22:33N 40°39' E 028°52'1616.4
2014-Oct-19 21:33N 40°45' E 029°12'1312.5
2014-Oct-19 20:29N 40°45' E 029°30'3 0.6
2014-Oct-19 14:32N 40°45' E 029°34'1010.0
2014-Oct-19 13:31N 40°44' E 029°21'1212.2
2014-Oct-19 12:33N 40°43' E 029°06'1515.1
2014-Oct-19 11:33N 40°44' E 028°46'15210.6
2014-Oct-18 21:13N 39°40' E 025°45'7715.3
2014-Oct-18 16:11N 38°31' E 025°00'1314.5
2014-Oct-18 15:15N 38°19' E 024°52'2814.0
2014-Oct-18 13:15N 37°55' E 024°36'1115.4
2014-Oct-18 12:34N 37°48' E 024°25'1716.3
2014-Oct-18 11:32N 37°37' E 024°09'1616.0
2014-Oct-18 10:33N 37°36' E 023°50'1515.3
2014-Oct-18 09:34N 37°48' E 023°38'9 9.2
2014-Oct-18 08:34N 37°58' E 023°36'0 0.0
2014-Oct-18 07:31N 37°58' E 023°36'0 0.0
2014-Oct-18 06:31N 37°58' E 023°36'0 0.0
2014-Oct-18 05:31N 37°58' E 023°37'2 2.2
2014-Oct-18 04:33N 37°55' E 023°36'1 1.3
2014-Oct-18 03:33N 37°54' E 023°37'5 5.3
2014-Oct-18 02:33N 37°50' E 023°40'1313.3
2014-Oct-18 01:33N 37°37' E 023°46'1515.2
2014-Oct-18 00:33N 37°22' E 023°45'1615.7
2014-Oct-17 23:33N 37°06' E 023°44'1515.7
2014-Oct-17 22:33N 36°52' E 023°36'1716.2
2014-Oct-17 21:32N 36°38' E 023°26'1515.9
2014-Oct-17 20:33N 36°24' E 023°16'36013.2
2014-Oct-16 17:23N 37°45' E 015°57'2714.0
2014-Oct-16 15:28N 38°05' E 015°34'1515.5
2014-Oct-16 14:30N 38°19' E 015°39'1716.7
2014-Oct-16 13:29N 38°31' E 015°24'36015.7
2014-Oct-15 14:34N 42°52' E 009°57'1616.1
2014-Oct-15 13:33N 43°08' E 010°03'1616.2
2014-Oct-15 12:33N 43°23' E 010°09'1111.2
2014-Oct-15 11:34N 43°33' E 010°17'2 2.1
2014-Oct-15 10:31N 43°35' E 010°18'0 0.0
2014-Oct-15 09:31N 43°35' E 010°18'0 0.0
2014-Oct-15 08:31N 43°35' E 010°18'0 0.0
2014-Oct-15 07:31N 43°35' E 010°18'  
Track history (hours):
 
Tides and Currents Weather Stations Pressure Air Temp Water Temp Dewpoint Dewpoint Depression Visibility Wind Speed Wind Dir Waves Ship Positions

Planet Ace

Last reported at 2014-Oct-25 06:33 UTC. Time now 2014-Oct-25 07:01 UTC.
Position N 38°15' E 009°22'.

Length 188 m; beam 28.2 m.

Type: Cargo ship. MMSI: 352168000.

Date/timePositionNaut miles runAvg speedWind from/ knotsBaromVisibWave heightAir tempDewpointWater temp
2014-Oct-25 06:33N 38°15' E 009°22'  
2014-Oct-23 01:20N 36°32' E 023°42'1314.1
2014-Oct-23 00:24N 36°42' E 023°53'1314.6
2014-Oct-22 23:32N 36°52' E 024°02'1414.5
2014-Oct-22 22:33N 37°05' E 024°08'1514.7
2014-Oct-22 21:33N 37°19' E 024°14'1414.1
2014-Oct-22 20:33N 37°31' E 024°23'1414.3
2014-Oct-22 19:34N 37°44' E 024°32'13813.7
2014-Oct-22 09:30N 39°50' E 025°45'13312.1
2014-Oct-21 22:32N 40°45' E 028°24'1515.2
2014-Oct-21 21:33N 40°35' E 028°39'1814.8
2014-Oct-21 20:19N 40°26' E 028°60'4 2.2
2014-Oct-21 18:29N 40°25' E 029°05'0 0.0
2014-Oct-21 17:29N 40°25' E 029°05'0 0.0
2014-Oct-21 16:23N 40°25' E 029°05'0 0.0
2014-Oct-21 15:23N 40°25' E 029°05'0 0.0
2014-Oct-21 14:23N 40°25' E 029°05'0 0.1
2014-Oct-21 10:33N 40°25' E 029°05'2 0.1
2014-Oct-20 00:21N 40°27' E 029°03'1512.5
2014-Oct-19 23:07N 40°33' E 028°45'814.6
2014-Oct-19 22:33N 40°39' E 028°52'1616.4
2014-Oct-19 21:33N 40°45' E 029°12'1312.5
2014-Oct-19 20:29N 40°45' E 029°30'3 0.6
2014-Oct-19 14:32N 40°45' E 029°34'1010.0
2014-Oct-19 13:31N 40°44' E 029°21'1212.2
2014-Oct-19 12:33N 40°43' E 029°06'1515.1
2014-Oct-19 11:33N 40°44' E 028°46'15210.6
2014-Oct-18 21:13N 39°40' E 025°45'7715.3
2014-Oct-18 16:11N 38°31' E 025°00'1314.5
2014-Oct-18 15:15N 38°19' E 024°52'2814.0
2014-Oct-18 13:15N 37°55' E 024°36'1115.4
2014-Oct-18 12:34N 37°48' E 024°25'1716.3
2014-Oct-18 11:32N 37°37' E 024°09'1616.0
2014-Oct-18 10:33N 37°36' E 023°50'1515.3
2014-Oct-18 09:34N 37°48' E 023°38'9 9.2
2014-Oct-18 08:34N 37°58' E 023°36'0 0.0
2014-Oct-18 07:31N 37°58' E 023°36'0 0.0
2014-Oct-18 06:31N 37°58' E 023°36'0 0.0
2014-Oct-18 05:31N 37°58' E 023°37'2 2.2
2014-Oct-18 04:33N 37°55' E 023°36'1 1.3
2014-Oct-18 03:33N 37°54' E 023°37'5 5.3
2014-Oct-18 02:33N 37°50' E 023°40'1313.3
2014-Oct-18 01:33N 37°37' E 023°46'1515.2
2014-Oct-18 00:33N 37°22' E 023°45'1615.7
2014-Oct-17 23:33N 37°06' E 023°44'1515.7
2014-Oct-17 22:33N 36°52' E 023°36'1716.2
2014-Oct-17 21:32N 36°38' E 023°26'1515.9
2014-Oct-17 20:33N 36°24' E 023°16'36013.2
2014-Oct-16 17:23N 37°45' E 015°57'2714.0
2014-Oct-16 15:28N 38°05' E 015°34'1515.5
2014-Oct-16 14:30N 38°19' E 015°39'1716.7
2014-Oct-16 13:29N 38°31' E 015°24'36015.7
2014-Oct-15 14:34N 42°52' E 009°57'1616.1
2014-Oct-15 13:33N 43°08' E 010°03'1616.2
2014-Oct-15 12:33N 43°23' E 010°09'1111.2
2014-Oct-15 11:34N 43°33' E 010°17'2 2.1
2014-Oct-15 10:31N 43°35' E 010°18'0 0.0
2014-Oct-15 09:31N 43°35' E 010°18'0 0.0
2014-Oct-15 08:31N 43°35' E 010°18'0 0.0
2014-Oct-15 07:31N 43°35' E 010°18'  

Dump ship's entire track history